Time,TemperatureF,DewpointF,PressureIn,WindDirection,WindDirectionDegrees,WindSpeedMPH,WindSpeedGustMPH,Humidity,HourlyPrecipIn,Conditions,Clouds,dailyrainin,SoftwareType,DateUTC
2013-03-19 00:00:00,33.9,32.4,30.08,WSW,249,7.0,15.0,94,0.20,,,0.01,Wunderground v.1.15,2013-03-19 04:00:00,
2013-03-19 00:05:00,34.0,32.5,30.07,WSW,244,6.0,6.0,94,0.12,,,0.02,Wunderground v.1.15,2013-03-19 04:05:00,
2013-03-19 00:11:00,34.1,32.6,30.07,SW,232,6.0,15.0,94,0.22,,,0.04,Wunderground v.1.15,2013-03-19 04:11:00,
2013-03-19 00:16:00,34.2,32.7,30.06,WSW,241,6.0,6.0,94,0.10,,,0.04,Wunderground v.1.15,2013-03-19 04:16:00,
2013-03-19 00:20:00,34.3,32.8,30.06,SSW,211,6.0,15.0,94,0.20,,,0.06,Wunderground v.1.15,2013-03-19 04:20:00,
2013-03-19 00:25:00,34.3,32.8,30.06,WSW,257,6.0,15.0,94,0.10,,,0.06,Wunderground v.1.15,2013-03-19 04:25:00,
2013-03-19 00:30:00,34.4,32.9,30.05,SSW,213,6.0,15.0,94,0.17,,,0.08,Wunderground v.1.15,2013-03-19 04:30:00,
2013-03-19 00:40:00,34.4,32.9,30.04,WSW,246,7.0,7.0,94,0.09,,,0.09,Wunderground v.1.15,2013-03-19 04:40:00,
2013-03-19 00:45:00,34.5,33.0,30.04,SW,225,7.0,15.0,94,0.13,,,0.10,Wunderground v.1.15,2013-03-19 04:45:00,
2013-03-19 00:50:00,34.5,33.0,30.03,SW,228,7.0,15.0,94,0.09,,,0.11,Wunderground v.1.15,2013-03-19 04:50:00,
2013-03-19 01:00:00,34.4,32.9,30.03,SW,233,6.0,15.0,94,0.07,,,0.12,Wunderground v.1.15,2013-03-19 05:00:00,
2013-03-19 01:05:00,34.4,32.9,30.02,SW,232,7.0,15.0,94,0.16,,,0.14,Wunderground v.1.15,2013-03-19 05:05:00,
2013-03-19 01:10:00,34.4,32.9,30.02,SW,234,6.0,15.0,94,0.10,,,0.14,Wunderground v.1.15,2013-03-19 05:10:00,
2013-03-19 01:15:00,34.5,33.0,30.02,SW,222,7.0,7.0,94,0.07,,,0.15,Wunderground v.1.15,2013-03-19 05:15:00,
2013-03-19 01:20:00,34.5,33.0,30.01,SW,229,7.0,15.0,94,0.13,,,0.16,Wunderground v.1.15,2013-03-19 05:20:00,
2013-03-19 01:30:00,34.6,33.1,30.01,SW,223,6.0,15.0,94,0.16,,,0.17,Wunderground v.1.15,2013-03-19 05:30:00,
2013-03-19 01:40:00,34.7,33.2,30.01,WSW,248,6.0,15.0,94,0.06,,,0.18,Wunderground v.1.15,2013-03-19 05:40:00,
2013-03-19 01:45:00,34.7,33.2,30.01,SW,236,6.0,15.0,94,0.05,,,0.19,Wunderground v.1.15,2013-03-19 05:45:00,
2013-03-19 01:50:00,34.8,33.2,30.00,SW,232,6.0,15.0,94,0.11,,,0.20,Wunderground v.1.15,2013-03-19 05:50:00,
2013-03-19 01:55:00,34.9,33.3,30.00,WSW,250,6.0,15.0,94,0.07,,,0.20,Wunderground v.1.15,2013-03-19 05:55:00,
2013-03-19 02:01:00,35.0,33.4,29.99,SW,228,7.0,15.0,94,0.06,,,0.21,Wunderground v.1.15,2013-03-19 06:01:00,
2013-03-19 02:06:00,35.2,33.6,29.98,SW,220,6.0,6.0,94,0.12,,,0.22,Wunderground v.1.15,2013-03-19 06:06:00,
2013-03-19 02:16:00,35.6,34.0,29.98,WSW,237,6.0,15.0,94,0.14,,,0.24,Wunderground v.1.15,2013-03-19 06:16:00,
2013-03-19 02:21:00,35.6,34.0,29.97,WSW,242,6.0,15.0,94,0.09,,,0.25,Wunderground v.1.15,2013-03-19 06:21:00,
2013-03-19 02:26:00,35.7,34.1,29.96,WSW,246,7.0,15.0,94,0.18,,,0.26,Wunderground v.1.15,2013-03-19 06:26:00,
2013-03-19 02:31:00,35.8,34.2,29.95,WSW,238,8.0,15.0,94,0.29,,,0.28,Wunderground v.1.15,2013-03-19 06:31:00,
2013-03-19 02:37:00,35.8,34.2,29.94,WSW,257,9.0,9.0,94,0.12,,,0.29,Wunderground v.1.15,2013-03-19 06:37:00,
2013-03-19 02:46:00,35.9,34.3,29.94,SW,225,8.0,8.0,94,0.27,,,0.32,Wunderground v.1.15,2013-03-19 06:46:00,
2013-03-19 02:51:00,35.9,34.3,29.93,SW,230,7.0,15.0,94,0.14,,,0.33,Wunderground v.1.15,2013-03-19 06:51:00,
2013-03-19 02:56:00,35.9,34.3,29.93,WSW,246,7.0,15.0,94,0.16,,,0.34,Wunderground v.1.15,2013-03-19 06:56:00,
2013-03-19 03:01:00,36.0,34.4,29.93,WSW,247,7.0,15.0,94,0.09,,,0.35,Wunderground v.1.15,2013-03-19 07:01:00,
2013-03-19 03:06:00,36.0,34.4,29.93,WSW,252,7.0,7.0,94,0.15,,,0.36,Wunderground v.1.15,2013-03-19 07:06:00,
2013-03-19 03:11:00,36.0,34.4,29.94,WSW,242,7.0,8.0,94,0.30,,,0.38,Wunderground v.1.15,2013-03-19 07:11:00,
2013-03-19 03:16:00,36.1,34.5,29.95,SW,217,7.0,7.0,94,0.29,,,0.40,Wunderground v.1.15,2013-03-19 07:16:00,
2013-03-19 03:26:00,36.2,34.6,29.94,WSW,241,6.0,6.0,94,0.12,,,0.43,Wunderground v.1.15,2013-03-19 07:26:00,
2013-03-19 03:31:00,36.2,34.6,29.93,SW,221,6.0,15.0,94,0.20,,,0.44,Wunderground v.1.15,2013-03-19 07:31:00,
2013-03-19 03:36:00,36.2,34.6,29.92,SW,225,6.0,15.0,94,0.27,,,0.46,Wunderground v.1.15,2013-03-19 07:36:00,
2013-03-19 03:41:00,36.2,34.6,29.92,WSW,244,6.0,15.0,94,0.12,,,0.47,Wunderground v.1.15,2013-03-19 07:41:00,
2013-03-19 03:51:00,36.3,34.7,29.91,SW,221,6.0,15.0,94,0.11,,,0.49,Wunderground v.1.15,2013-03-19 07:51:00,
2013-03-19 03:56:00,36.3,34.7,29.91,WSW,238,6.0,6.0,94,0.16,,,0.50,Wunderground v.1.15,2013-03-19 07:56:00,
2013-03-19 04:01:00,36.2,34.6,29.90,SW,234,6.0,15.0,94,0.09,,,0.51,Wunderground v.1.15,2013-03-19 08:01:00,
2013-03-19 04:11:00,36.4,34.8,29.90,WSW,250,6.0,15.0,94,0.08,,,0.53,Wunderground v.1.15,2013-03-19 08:11:00,
2013-03-19 04:16:00,36.5,34.9,29.89,SW,232,6.0,15.0,94,0.17,,,0.54,Wunderground v.1.15,2013-03-19 08:16:00,
2013-03-19 04:21:00,36.5,34.9,29.89,West,259,7.0,15.0,94,0.25,,,0.56,Wunderground v.1.15,2013-03-19 08:21:00,
2013-03-19 04:26:00,36.6,35.0,29.89,WSW,244,7.0,7.0,94,0.12,,,0.57,Wunderground v.1.15,2013-03-19 08:26:00,
2013-03-19 04:36:00,36.7,35.1,29.88,WSW,257,8.0,15.0,94,0.08,,,0.01,Wunderground v.1.15,2013-03-19 08:36:00,
2013-03-19 04:41:00,36.7,35.1,29.87,WSW,242,9.0,15.0,94,0.16,,,0.02,Wunderground v.1.15,2013-03-19 08:41:00,
2013-03-19 04:46:00,36.8,35.2,29.86,West,263,9.0,15.0,94,0.07,,,0.02,Wunderground v.1.15,2013-03-19 08:46:00,
2013-03-19 04:55:00,36.9,35.3,29.85,SSW,213,9.0,9.0,94,0.12,,,0.04,Wunderground v.1.15,2013-03-19 08:55:00,
2013-03-19 05:01:00,36.9,35.3,29.85,SW,236,9.0,20.0,94,0.06,,,0.04,Wunderground v.1.15,2013-03-19 09:01:00,
2013-03-19 05:06:00,36.9,35.3,29.85,WSW,256,8.0,15.0,94,0.15,,,0.06,Wunderground v.1.15,2013-03-19 09:06:00,
2013-03-19 05:15:00,37.0,35.4,29.85,WSW,256,10.0,10.0,94,0.08,,,0.07,Wunderground v.1.15,2013-03-19 09:15:00,
2013-03-19 05:20:00,37.0,35.4,29.85,WSW,242,10.0,15.0,94,0.13,,,0.08,Wunderground v.1.15,2013-03-19 09:20:00,
2013-03-19 05:25:00,37.1,35.5,29.85,West,259,10.0,10.0,94,0.21,,,0.10,Wunderground v.1.15,2013-03-19 09:25:00,
2013-03-19 05:30:00,37.2,35.6,29.85,WSW,239,10.0,15.0,94,0.10,,,0.10,Wunderground v.1.15,2013-03-19 09:30:00,
2013-03-19 05:40:00,37.3,35.7,29.85,WSW,247,8.0,15.0,94,0.08,,,0.12,Wunderground v.1.15,2013-03-19 09:40:00,
2013-03-19 05:45:00,37.2,35.6,29.84,WSW,253,7.0,15.0,94,0.08,,,0.12,Wunderground v.1.15,2013-03-19 09:45:00,
2013-03-19 05:50:00,37.2,35.6,29.83,WSW,242,7.0,15.0,94,0.06,,,0.12,Wunderground v.1.15,2013-03-19 09:50:00,
2013-03-19 05:56:00,37.2,35.6,29.83,WSW,238,8.0,23.0,94,0.04,,,0.13,Wunderground v.1.15,2013-03-19 09:56:00,
2013-03-19 06:05:00,37.2,35.6,29.83,West,270,10.0,23.0,94,0.04,,,0.13,Wunderground v.1.15,2013-03-19 10:05:00,
2013-03-19 06:10:00,37.3,35.7,29.84,West,259,10.0,23.0,94,0.04,,,0.14,Wunderground v.1.15,2013-03-19 10:10:00,
2013-03-19 06:20:00,37.3,35.7,29.83,WSW,250,9.0,23.0,94,0.04,,,0.14,Wunderground v.1.15,2013-03-19 10:20:00,
2013-03-19 06:25:00,37.3,35.7,29.83,SW,232,9.0,9.0,94,0.00,,,0.14,Wunderground v.1.15,2013-03-19 10:25:00,
2013-03-19 06:35:00,37.5,35.9,29.82,SW,234,9.0,9.0,94,0.19,,,0.16,Wunderground v.1.15,2013-03-19 10:35:00,
2013-03-19 06:40:00,37.4,35.8,29.82,WSW,249,10.0,10.0,94,0.09,,,0.16,Wunderground v.1.15,2013-03-19 10:40:00,
2013-03-19 06:45:00,37.4,35.8,29.82,SW,235,9.0,23.0,94,0.07,,,0.17,Wunderground v.1.15,2013-03-19 10:45:00,
2013-03-19 06:50:00,37.5,35.9,29.82,WSW,250,9.0,23.0,94,0.07,,,0.17,Wunderground v.1.15,2013-03-19 10:50:00,
2013-03-19 07:01:00,37.5,35.9,29.80,WSW,257,10.0,23.0,94,0.05,,,0.18,Wunderground v.1.15,2013-03-19 11:01:00,
2013-03-19 07:11:00,37.5,35.9,29.79,West,266,10.0,23.0,94,0.04,,,0.18,Wunderground v.1.15,2013-03-19 11:11:00,
2013-03-19 07:16:00,37.5,35.9,29.79,SW,232,10.0,23.0,94,0.00,,,0.18,Wunderground v.1.15,2013-03-19 11:16:00,
2013-03-19 07:21:00,37.7,36.1,29.78,West,275,10.0,23.0,94,0.00,,,0.19,Wunderground v.1.15,2013-03-19 11:21:00,
2013-03-19 07:26:00,37.7,36.1,29.78,WSW,238,10.0,10.0,94,0.00,,,0.19,Wunderground v.1.15,2013-03-19 11:26:00,
2013-03-19 07:31:00,37.8,36.2,29.78,WSW,252,10.0,13.0,94,0.00,,,0.19,Wunderground v.1.15,2013-03-19 11:31:00,
2013-03-19 07:36:00,37.9,36.3,29.77,WSW,247,9.0,23.0,94,0.00,,,0.19,Wunderground v.1.15,2013-03-19 11:36:00,
2013-03-19 07:41:00,38.0,36.4,29.76,WSW,244,10.0,23.0,94,0.00,,,0.20,Wunderground v.1.15,2013-03-19 11:41:00,
2013-03-19 07:51:00,38.1,36.5,29.77,WSW,253,11.0,23.0,94,0.00,,,0.20,Wunderground v.1.15,2013-03-19 11:51:00,
2013-03-19 08:01:00,38.2,36.6,29.76,WSW,247,8.0,23.0,94,0.00,,,0.21,Wunderground v.1.15,2013-03-19 12:01:00,
2013-03-19 08:11:00,38.3,36.7,29.75,WSW,240,11.0,23.0,94,0.06,,,0.22,Wunderground v.1.15,2013-03-19 12:11:00,
2013-03-19 08:21:00,38.3,36.7,29.74,WSW,240,9.0,11.0,94,0.06,,,0.23,Wunderground v.1.15,2013-03-19 12:21:00,
2013-03-19 08:31:00,38.3,36.7,29.75,West,259,11.0,23.0,94,0.05,,,0.23,Wunderground v.1.15,2013-03-19 12:31:00,
2013-03-19 08:41:00,38.5,36.9,29.75,WNW,284,9.0,23.0,94,0.00,,,0.24,Wunderground v.1.15,2013-03-19 12:41:00,
2013-03-19 08:46:00,38.5,36.9,29.75,WSW,247,8.0,8.0,94,0.00,,,0.24,Wunderground v.1.15,2013-03-19 12:46:00,
2013-03-19 08:51:00,38.6,37.0,29.75,West,262,8.0,13.0,94,0.00,,,0.24,Wunderground v.1.15,2013-03-19 12:51:00,
2013-03-19 09:01:00,38.6,37.0,29.73,West,275,9.0,23.0,94,0.00,,,0.25,Wunderground v.1.15,2013-03-19 13:01:00,
2013-03-19 09:11:00,38.8,37.5,29.72,SW,218,9.0,23.0,95,0.00,,,0.25,Wunderground v.1.15,2013-03-19 13:11:00,
2013-03-19 09:16:00,38.8,37.2,29.72,WSW,257,10.0,10.0,94,0.00,,,0.25,Wunderground v.1.15,2013-03-19 13:16:00,
2013-03-19 09:21:00,38.9,37.3,29.73,SW,234,10.0,23.0,94,0.04,,,0.26,Wunderground v.1.15,2013-03-19 13:21:00,
2013-03-19 09:31:00,39.0,37.4,29.74,WSW,244,6.0,23.0,94,0.04,,,0.26,Wunderground v.1.15,2013-03-19 13:31:00,
2013-03-19 09:41:00,39.1,37.5,29.75,SSW,196,5.0,23.0,94,0.00,,,0.26,Wunderground v.1.15,2013-03-19 13:41:00,
2013-03-19 09:46:00,39.1,37.5,29.76,SW,224,4.0,4.0,94,0.00,,,0.26,Wunderground v.1.15,2013-03-19 13:46:00,
2013-03-19 09:51:00,39.1,37.5,29.76,SSW,199,4.0,6.0,94,0.00,,,0.26,Wunderground v.1.15,2013-03-19 13:51:00,
2013-03-19 10:00:00,39.2,37.6,29.76,SW,230,5.0,23.0,94,0.00,,,0.26,Wunderground v.1.15,2013-03-19 14:00:00,
2013-03-19 10:05:00,39.1,37.5,29.76,WSW,249,5.0,5.0,94,0.00,,,0.26,Wunderground v.1.15,2013-03-19 14:05:00,
2013-03-19 10:11:00,39.2,37.6,29.75,WSW,244,6.0,7.0,94,0.00,,,0.26,Wunderground v.1.15,2013-03-19 14:11:00,
2013-03-19 10:20:00,39.3,37.7,29.73,SW,225,4.0,23.0,94,0.00,,,0.26,Wunderground v.1.15,2013-03-19 14:20:00,
2013-03-19 10:30:00,39.2,37.6,29.73,SW,232,5.0,23.0,94,0.00,,,0.26,Wunderground v.1.15,2013-03-19 14:30:00,
2013-03-19 10:40:00,39.1,37.5,29.73,WSW,251,5.0,23.0,94,0.00,,,0.26,Wunderground v.1.15,2013-03-19 14:40:00,
2013-03-19 10:45:00,39.2,37.6,29.72,SW,223,5.0,23.0,94,0.00,,,0.26,Wunderground v.1.15,2013-03-19 14:45:00,
2013-03-19 10:55:00,39.3,37.7,29.72,WSW,249,6.0,6.0,94,0.00,,,0.26,Wunderground v.1.15,2013-03-19 14:55:00,
2013-03-19 11:01:00,39.3,37.7,29.72,SW,233,6.0,23.0,94,0.00,,,0.26,Wunderground v.1.15,2013-03-19 15:01:00,
2013-03-19 11:06:00,39.5,38.2,29.72,SW,223,6.0,23.0,95,0.00,,,0.26,Wunderground v.1.15,2013-03-19 15:06:00,
2013-03-19 11:16:00,39.6,38.3,29.69,WSW,241,6.0,6.0,95,0.00,,,0.26,Wunderground v.1.15,2013-03-19 15:16:00,
2013-03-19 11:21:00,39.7,38.4,29.69,WSW,253,6.0,23.0,95,0.00,,,0.26,Wunderground v.1.15,2013-03-19 15:21:00,
2013-03-19 11:26:00,39.8,38.2,29.69,SW,221,6.0,6.0,94,0.00,,,0.26,Wunderground v.1.15,2013-03-19 15:26:00,
2013-03-19 11:31:00,39.9,38.3,29.68,SSW,211,6.0,23.0,94,0.00,,,0.26,Wunderground v.1.15,2013-03-19 15:31:00,
2013-03-19 11:36:00,39.9,38.3,29.69,West,262,6.0,23.0,94,0.00,,,0.26,Wunderground v.1.15,2013-03-19 15:36:00,
2013-03-19 11:46:00,39.9,38.3,29.68,WSW,246,5.0,23.0,94,0.00,,,0.26,Wunderground v.1.15,2013-03-19 15:46:00,
2013-03-19 11:51:00,40.0,38.4,29.68,West,263,6.0,23.0,94,0.00,,,0.26,Wunderground v.1.15,2013-03-19 15:51:00,
2013-03-19 11:56:00,40.1,38.8,29.67,SW,224,6.0,22.0,95,0.00,,,0.26,Wunderground v.1.15,2013-03-19 15:56:00,
2013-03-19 12:06:00,40.2,38.9,29.67,SSW,198,5.0,5.0,95,0.00,,,0.26,Wunderground v.1.15,2013-03-19 16:06:00,
2013-03-19 12:11:00,40.2,38.9,29.67,WSW,254,6.0,10.0,95,0.00,,,0.26,Wunderground v.1.15,2013-03-19 16:11:00,
2013-03-19 12:21:00,40.3,39.0,29.67,West,267,5.0,10.0,95,0.00,,,0.26,Wunderground v.1.15,2013-03-19 16:21:00,
2013-03-19 12:31:00,40.5,39.2,29.67,SW,223,5.0,22.0,95,0.00,,,0.26,Wunderground v.1.15,2013-03-19 16:31:00,
2013-03-19 12:41:00,40.7,39.4,29.67,West,261,3.0,22.0,95,0.00,,,0.26,Wunderground v.1.15,2013-03-19 16:41:00,
2013-03-19 12:46:00,40.7,39.4,29.67,South,174,3.0,22.0,95,0.00,,,0.26,Wunderground v.1.15,2013-03-19 16:46:00,
2013-03-19 12:56:00,40.6,39.0,29.71,SSE,147,4.0,22.0,94,0.00,,,0.26,Wunderground v.1.15,2013-03-19 16:56:00,
2013-03-19 13:06:00,38.9,37.3,29.72,SSE,148,11.0,22.0,94,0.00,,,0.26,Wunderground v.1.15,2013-03-19 17:06:00,
2013-03-19 13:11:00,38.7,37.1,29.70,SE,146,11.0,22.0,94,0.00,,,0.26,Wunderground v.1.15,2013-03-19 17:11:00,
2013-03-19 13:16:00,38.9,37.3,29.70,SSE,153,10.0,10.0,94,0.00,,,0.26,Wunderground v.1.15,2013-03-19 17:16:00,
2013-03-19 13:26:00,38.3,36.7,29.70,SSE,163,11.0,22.0,94,0.00,,,0.26,Wunderground v.1.15,2013-03-19 17:26:00,
2013-03-19 13:36:00,37.6,36.0,29.70,SE,126,10.0,10.0,94,0.00,,,0.26,Wunderground v.1.15,2013-03-19 17:36:00,
2013-03-19 13:41:00,37.5,35.9,29.71,SE,146,9.0,11.0,94,0.00,,,0.26,Wunderground v.1.15,2013-03-19 17:41:00,
2013-03-19 13:46:00,37.4,35.8,29.70,SE,135,9.0,22.0,94,0.00,,,0.26,Wunderground v.1.15,2013-03-19 17:46:00,
2013-03-19 13:55:00,37.1,35.8,29.69,South,169,10.0,10.0,95,0.00,,,0.26,Wunderground v.1.15,2013-03-19 17:55:00,
2013-03-19 14:00:00,37.3,36.0,29.67,South,190,8.0,22.0,95,0.00,,,0.26,Wunderground v.1.15,2013-03-19 18:00:00,
2013-03-19 14:06:00,37.4,36.1,29.66,South,182,8.0,8.0,95,0.00,,,0.26,Wunderground v.1.15,2013-03-19 18:06:00,
2013-03-19 14:11:00,37.7,36.4,29.65,SW,216,7.0,22.0,95,0.00,,,0.26,Wunderground v.1.15,2013-03-19 18:11:00,
2013-03-19 14:16:00,37.8,36.5,29.63,SSE,165,6.0,22.0,95,0.00,,,0.26,Wunderground v.1.15,2013-03-19 18:16:00,
2013-03-19 14:25:00,37.9,36.6,29.63,South,173,5.0,22.0,95,0.00,,,0.26,Wunderground v.1.15,2013-03-19 18:25:00,
2013-03-19 14:30:00,38.1,36.8,29.62,South,184,4.0,22.0,95,0.00,,,0.26,Wunderground v.1.15,2013-03-19 18:30:00,
2013-03-19 14:40:00,39.1,37.8,29.63,SE,143,4.0,22.0,95,0.00,,,0.26,Wunderground v.1.15,2013-03-19 18:40:00,
2013-03-19 14:45:00,39.7,38.4,29.65,SE,145,7.0,22.0,95,0.00,,,0.26,Wunderground v.1.15,2013-03-19 18:45:00,
2013-03-19 14:50:00,40.0,38.7,29.65,SE,146,8.0,22.0,95,0.00,,,0.26,Wunderground v.1.15,2013-03-19 18:50:00,
2013-03-19 14:55:00,39.9,38.6,29.65,SE,132,8.0,8.0,95,0.00,,,0.26,Wunderground v.1.15,2013-03-19 18:55:00,
2013-03-19 15:05:00,40.1,38.8,29.65,SSE,157,8.0,22.0,95,0.00,,,0.26,Wunderground v.1.15,2013-03-19 19:05:00,
2013-03-19 15:10:00,40.3,38.7,29.65,South,172,8.0,22.0,94,0.00,,,0.26,Wunderground v.1.15,2013-03-19 19:10:00,
2013-03-19 15:20:00,40.0,38.4,29.65,SE,131,8.0,22.0,94,0.00,,,0.26,Wunderground v.1.15,2013-03-19 19:20:00,
2013-03-19 15:25:00,40.0,38.4,29.65,SE,139,8.0,8.0,94,0.00,,,0.26,Wunderground v.1.15,2013-03-19 19:25:00,
2013-03-19 15:30:00,40.0,38.1,29.65,SE,135,8.0,9.0,93,0.00,,,0.26,Wunderground v.1.15,2013-03-19 19:30:00,
2013-03-19 15:35:00,39.8,37.9,29.65,SE,142,9.0,22.0,93,0.00,,,0.26,Wunderground v.1.15,2013-03-19 19:35:00,
2013-03-19 15:45:00,39.5,37.6,29.65,ESE,120,10.0,10.0,93,0.00,,,0.26,Wunderground v.1.15,2013-03-19 19:45:00,
2013-03-19 15:50:00,39.6,37.7,29.64,SE,128,10.0,22.0,93,0.00,,,0.26,Wunderground v.1.15,2013-03-19 19:50:00,
2013-03-19 15:55:00,39.9,38.0,29.64,SE,132,9.0,9.0,93,0.00,,,0.26,Wunderground v.1.15,2013-03-19 19:55:00,
2013-03-19 16:01:00,40.3,38.4,29.64,SE,126,9.0,22.0,93,0.00,,,0.26,Wunderground v.1.15,2013-03-19 20:01:00,
2013-03-19 16:11:00,40.3,38.2,29.64,SE,136,8.0,22.0,92,0.00,,,0.26,Wunderground v.1.15,2013-03-19 20:11:00,
2013-03-19 16:17:00,40.3,38.2,29.66,ESE,110,8.0,22.0,92,0.00,,,0.26,Wunderground v.1.15,2013-03-19 20:17:00,
2013-03-19 16:26:00,39.3,36.9,29.67,ESE,116,10.0,22.0,91,0.00,,,0.26,Wunderground v.1.15,2013-03-19 20:26:00,
2013-03-19 16:37:00,38.9,36.8,29.67,ESE,106,11.0,11.0,92,0.00,,,0.26,Wunderground v.1.15,2013-03-19 20:37:00,
2013-03-19 16:46:00,38.7,36.6,29.67,SE,132,11.0,11.0,92,0.00,,,0.26,Wunderground v.1.15,2013-03-19 20:46:00,
2013-03-19 16:56:00,38.7,36.6,29.68,ESE,121,10.0,10.0,92,0.00,,,0.26,Wunderground v.1.15,2013-03-19 20:56:00,
2013-03-19 17:06:00,38.6,36.5,29.68,ESE,119,11.0,11.0,92,0.00,,,0.26,Wunderground v.1.15,2013-03-19 21:06:00,
2013-03-19 17:11:00,38.4,36.3,29.69,SE,126,10.0,22.0,92,0.00,,,0.26,Wunderground v.1.15,2013-03-19 21:11:00,
2013-03-19 17:16:00,38.3,36.2,29.69,SE,126,9.0,9.0,92,0.00,,,0.26,Wunderground v.1.15,2013-03-19 21:16:00,
2013-03-19 17:26:00,38.2,36.4,29.69,ESE,109,9.0,22.0,93,0.00,,,0.26,Wunderground v.1.15,2013-03-19 21:26:00,
2013-03-19 17:31:00,38.2,36.4,29.69,ESE,121,10.0,22.0,93,0.00,,,0.26,Wunderground v.1.15,2013-03-19 21:31:00,
2013-03-19 17:41:00,38.2,36.4,29.69,ESE,109,9.0,22.0,93,0.00,,,0.26,Wunderground v.1.15,2013-03-19 21:41:00,
2013-03-19 17:46:00,38.4,36.6,29.69,SE,125,9.0,22.0,93,0.00,,,0.26,Wunderground v.1.15,2013-03-19 21:46:00,
2013-03-19 17:56:00,38.3,36.5,29.69,SE,128,9.0,9.0,93,0.00,,,0.26,Wunderground v.1.15,2013-03-19 21:56:00,
2013-03-19 18:01:00,38.3,36.5,29.69,ESE,111,9.0,14.0,93,0.00,,,0.26,Wunderground v.1.15,2013-03-19 22:01:00,
2013-03-19 18:11:00,38.3,36.5,29.71,ESE,113,10.0,16.0,93,0.00,,,0.26,Wunderground v.1.15,2013-03-19 22:11:00,
2013-03-19 18:16:00,38.4,36.6,29.70,ESE,112,10.0,10.0,93,0.00,,,0.26,Wunderground v.1.15,2013-03-19 22:16:00,
2013-03-19 18:21:00,38.6,36.8,29.70,ESE,105,8.0,12.0,93,0.00,,,0.26,Wunderground v.1.15,2013-03-19 22:21:00,
2013-03-19 18:31:00,38.7,36.9,29.70,ESE,119,8.0,16.0,93,0.00,,,0.26,Wunderground v.1.15,2013-03-19 22:31:00,
2013-03-19 18:41:00,38.6,36.5,29.71,ESE,121,6.0,16.0,92,0.00,,,0.26,Wunderground v.1.15,2013-03-19 22:41:00,
2013-03-19 18:51:00,38.2,36.1,29.70,East,98,6.0,16.0,92,0.00,,,0.26,Wunderground v.1.15,2013-03-19 22:51:00,
2013-03-19 18:56:00,38.0,35.9,29.70,ESE,103,5.0,16.0,92,0.00,,,0.26,Wunderground v.1.15,2013-03-19 22:56:00,
2013-03-19 19:01:00,37.9,35.8,29.71,ESE,107,5.0,16.0,92,0.00,,,0.26,Wunderground v.1.15,2013-03-19 23:01:00,
2013-03-19 19:06:00,37.9,36.1,29.72,East,99,6.0,16.0,93,0.00,,,0.26,Wunderground v.1.15,2013-03-19 23:06:00,
2013-03-19 19:15:00,38.0,36.2,29.73,East,96,5.0,16.0,93,0.00,,,0.26,Wunderground v.1.15,2013-03-19 23:15:00,
2013-03-19 19:21:00,38.0,36.2,29.73,East,96,6.0,16.0,93,0.00,,,0.26,Wunderground v.1.15,2013-03-19 23:21:00,
2013-03-19 19:30:00,37.8,35.7,29.74,ESE,111,5.0,16.0,92,0.00,,,0.26,Wunderground v.1.15,2013-03-19 23:30:00,
2013-03-19 19:35:00,37.8,35.7,29.74,East,100,6.0,6.0,92,0.00,,,0.26,Wunderground v.1.15,2013-03-19 23:35:00,
2013-03-19 19:40:00,37.8,35.7,29.74,ESE,109,6.0,7.0,92,0.00,,,0.26,Wunderground v.1.15,2013-03-19 23:40:00,
2013-03-19 19:45:00,37.9,35.8,29.74,ESE,109,6.0,16.0,92,0.00,,,0.26,Wunderground v.1.15,2013-03-19 23:45:00,
2013-03-19 19:50:00,37.8,35.7,29.74,ESE,107,6.0,16.0,92,0.00,,,0.26,Wunderground v.1.15,2013-03-19 23:50:00,
2013-03-19 19:55:00,37.7,35.6,29.73,East,100,6.0,6.0,92,0.00,,,0.26,Wunderground v.1.15,2013-03-19 23:55:00,
2013-03-19 20:05:00,37.5,35.4,29.74,ESE,109,5.0,16.0,92,0.00,,,0.26,Wunderground v.1.15,2013-03-20 00:05:00,
2013-03-19 20:10:00,37.4,35.3,29.74,ESE,110,5.0,16.0,92,0.00,,,0.26,Wunderground v.1.15,2013-03-20 00:10:00,
2013-03-19 20:15:00,37.4,35.3,29.75,SE,134,5.0,16.0,92,0.00,,,0.26,Wunderground v.1.15,2013-03-20 00:15:00,
2013-03-19 20:20:00,37.3,35.2,29.74,ESE,120,5.0,16.0,92,0.00,,,0.26,Wunderground v.1.15,2013-03-20 00:20:00,
2013-03-19 20:25:00,37.2,34.8,29.74,SE,129,6.0,6.0,91,0.00,,,0.26,Wunderground v.1.15,2013-03-20 00:25:00,
2013-03-19 20:35:00,37.1,34.7,29.74,ESE,123,6.0,6.0,91,0.00,,,0.26,Wunderground v.1.15,2013-03-20 00:35:00,
2013-03-19 20:40:00,37.0,34.6,29.74,SE,138,6.0,16.0,91,0.00,,,0.26,Wunderground v.1.15,2013-03-20 00:40:00,
2013-03-19 20:50:00,37.0,34.6,29.74,SE,138,6.0,16.0,91,0.00,,,0.26,Wunderground v.1.15,2013-03-20 00:50:00,
2013-03-19 20:56:00,37.0,34.6,29.74,SE,132,7.0,7.0,91,0.00,,,0.26,Wunderground v.1.15,2013-03-20 00:56:00,
2013-03-19 21:01:00,37.0,34.6,29.74,SE,132,7.0,16.0,91,0.00,,,0.26,Wunderground v.1.15,2013-03-20 01:01:00,
2013-03-19 21:07:00,36.9,34.5,29.74,SE,134,7.0,7.0,91,0.00,,,0.26,Wunderground v.1.15,2013-03-20 01:07:00,
2013-03-19 21:16:00,37.0,34.6,29.74,SE,132,7.0,7.0,91,0.00,,,0.26,Wunderground v.1.15,2013-03-20 01:16:00,
2013-03-19 21:21:00,37.0,34.3,29.74,SE,132,8.0,8.0,90,0.00,,,0.26,Wunderground v.1.15,2013-03-20 01:21:00,
2013-03-19 21:31:00,36.9,34.2,29.74,SE,144,7.0,16.0,90,0.00,,,0.26,Wunderground v.1.15,2013-03-20 01:31:00,
2013-03-19 21:36:00,37.0,34.3,29.75,ESE,123,8.0,8.0,90,0.00,,,0.26,Wunderground v.1.15,2013-03-20 01:36:00,
2013-03-19 21:41:00,36.9,34.2,29.75,SSE,147,8.0,11.0,90,0.00,,,0.26,Wunderground v.1.15,2013-03-20 01:41:00,
2013-03-19 21:46:00,36.9,34.2,29.75,SE,128,7.0,7.0,90,0.00,,,0.26,Wunderground v.1.15,2013-03-20 01:46:00,
2013-03-19 21:56:00,36.8,34.1,29.76,SE,131,7.0,16.0,90,0.00,,,0.26,Wunderground v.1.15,2013-03-20 01:56:00,
2013-03-19 22:01:00,36.8,34.1,29.76,SE,132,8.0,16.0,90,0.00,,,0.26,Wunderground v.1.15,2013-03-20 02:01:00,
2013-03-19 22:11:00,36.7,34.0,29.76,ESE,123,7.0,16.0,90,0.00,,,0.26,Wunderground v.1.15,2013-03-20 02:11:00,
2013-03-19 22:21:00,36.7,34.0,29.76,ESE,115,8.0,8.0,90,0.00,,,0.26,Wunderground v.1.15,2013-03-20 02:21:00,
2013-03-19 22:26:00,37.0,34.3,29.76,ESE,119,8.0,16.0,90,0.00,,,0.26,Wunderground v.1.15,2013-03-20 02:26:00,
2013-03-19 22:31:00,37.2,34.5,29.76,ESE,111,9.0,16.0,90,0.00,,,0.26,Wunderground v.1.15,2013-03-20 02:31:00,
2013-03-19 22:41:00,37.2,34.3,29.75,SE,129,8.0,16.0,89,0.00,,,0.26,Wunderground v.1.15,2013-03-20 02:41:00,
2013-03-19 22:46:00,37.0,34.1,29.75,SE,124,7.0,7.0,89,0.00,,,0.26,Wunderground v.1.15,2013-03-20 02:46:00,
2013-03-19 22:56:00,36.6,33.9,29.75,ESE,115,7.0,16.0,90,0.00,,,0.26,Wunderground v.1.15,2013-03-20 02:56:00,
2013-03-19 23:06:00,36.4,33.7,29.75,SE,129,7.0,16.0,90,0.00,,,0.26,Wunderground v.1.15,2013-03-20 03:06:00,
2013-03-19 23:16:00,36.4,33.7,29.76,ESE,102,7.0,7.0,90,0.00,,,0.26,Wunderground v.1.15,2013-03-20 03:16:00,
2013-03-19 23:26:00,36.7,34.0,29.77,ESE,102,8.0,8.0,90,0.00,,,0.26,Wunderground v.1.15,2013-03-20 03:26:00,
2013-03-19 23:31:00,37.0,34.3,29.76,ESE,111,9.0,9.0,90,0.00,,,0.26,Wunderground v.1.15,2013-03-20 03:31:00,
2013-03-19 23:36:00,37.2,34.3,29.76,ESE,107,9.0,9.0,89,0.00,,,0.26,Wunderground v.1.15,2013-03-20 03:36:00,
2013-03-19 23:41:00,37.1,34.2,29.76,East,101,9.0,16.0,89,0.00,,,0.26,Wunderground v.1.15,2013-03-20 03:41:00,
2013-03-19 23:46:00,37.0,34.1,29.76,East,92,8.0,16.0,89,0.00,,,0.26,Wunderground v.1.15,2013-03-20 03:46:00,
2013-03-19 23:56:00,36.7,33.8,29.77,East,98,6.0,15.0,89,0.00,,,0.26,Wunderground v.1.15,2013-03-20 03:56:00,